createdAt,value
2023-08-22T00:00:40.677Z,80.43
2023-08-22T00:03:08.719Z,80.24
2023-08-22T00:05:38.032Z,80.90
2023-08-22T00:08:06.806Z,80.56
2023-08-22T00:10:35.014Z,81.05
2023-08-22T00:13:03.849Z,82.07
2023-08-22T00:15:32.031Z,81.88
2023-08-22T00:17:59.897Z,82.46
2023-08-22T00:20:28.518Z,82.13
2023-08-22T00:22:57.737Z,82.41
2023-08-22T00:25:25.482Z,81.92
2023-08-22T00:27:54.108Z,81.35
2023-08-22T00:30:21.857Z,81.63
2023-08-22T00:32:50.305Z,81.34
2023-08-22T00:35:18.286Z,81.21
2023-08-22T00:37:46.060Z,80.97
2023-08-22T00:40:15.395Z,81.07
2023-08-22T00:42:43.136Z,81.18
2023-08-22T00:45:12.499Z,81.41
2023-08-22T00:47:40.999Z,81.63
2023-08-22T00:50:09.896Z,81.62
2023-08-22T00:52:39.116Z,81.77
2023-08-22T00:55:07.655Z,81.79
2023-08-22T00:57:39.067Z,81.83
2023-08-22T01:00:11.334Z,81.87
2023-08-22T01:02:39.980Z,81.77
2023-08-22T01:05:09.157Z,82.46
2023-08-22T01:07:41.270Z,82.35
2023-08-22T01:10:16.594Z,82.14
2023-08-22T01:12:53.880Z,81.89
2023-08-22T01:15:26.272Z,82.26
2023-08-22T01:17:55.760Z,82.59
2023-08-22T01:20:26.127Z,82.05
2023-08-22T01:22:55.452Z,82.54
2023-08-22T01:25:23.845Z,82.53
2023-08-22T01:28:02.107Z,82.38
2023-08-22T01:30:35.073Z,82.40
2023-08-22T01:33:07.849Z,82.61
2023-08-22T01:35:37.951Z,82.74
2023-08-22T01:38:08.139Z,82.92
2023-08-22T01:40:37.321Z,82.74
2023-08-22T01:43:05.681Z,83.16
2023-08-22T01:45:34.518Z,82.78
2023-08-22T01:48:02.715Z,82.95
2023-08-22T01:50:30.536Z,83.16
2023-08-22T01:52:58.979Z,83.11
2023-08-22T01:55:28.176Z,83.29
2023-08-22T01:57:55.909Z,83.59
2023-08-22T02:00:24.031Z,83.94
2023-08-22T02:02:52.300Z,83.46
2023-08-22T02:05:20.184Z,83.88
2023-08-22T02:07:47.967Z,83.33
2023-08-22T02:10:15.712Z,83.42
2023-08-22T02:12:44.881Z,83.64
2023-08-22T02:15:12.703Z,83.77
2023-08-22T02:17:40.751Z,84.16
2023-08-22T02:20:11.316Z,83.81
2023-08-22T02:22:40.822Z,84.33
2023-08-22T02:25:09.529Z,84.26
2023-08-22T02:27:38.345Z,84.55
2023-08-22T02:30:10.591Z,84.64
2023-08-22T02:32:41.021Z,84.42
2023-08-22T02:35:09.677Z,85.26
2023-08-22T02:37:37.778Z,85.60
2023-08-22T02:40:07.699Z,85.12
2023-08-22T02:42:35.473Z,85.69
2023-08-22T02:45:04.157Z,86.11
2023-08-22T02:47:33.872Z,86.31
2023-08-22T02:50:01.869Z,86.42
2023-08-22T02:52:30.328Z,87.01
2023-08-22T02:54:58.630Z,86.74
2023-08-22T02:57:26.560Z,86.08
2023-08-22T02:59:54.380Z,85.83
2023-08-22T03:02:22.397Z,85.84
2023-08-22T03:04:51.582Z,85.58
2023-08-22T03:07:20.558Z,85.57
2023-08-22T03:09:48.427Z,84.74
2023-08-22T03:12:16.423Z,84.51
2023-08-22T03:14:44.822Z,85.10
2023-08-22T03:17:13.381Z,85.13
2023-08-22T03:19:41.298Z,85.40
2023-08-22T03:22:11.082Z,85.19
2023-08-22T03:24:38.854Z,85.39
2023-08-22T03:27:06.816Z,85.50
2023-08-22T03:29:34.648Z,85.43
2023-08-22T03:32:02.386Z,85.98
2023-08-22T03:34:30.731Z,85.03
2023-08-22T03:36:58.931Z,85.24
2023-08-22T03:39:28.175Z,85.13
2023-08-22T03:41:56.166Z,85.54
2023-08-22T03:44:24.517Z,86.04
2023-08-22T03:46:52.946Z,85.93
2023-08-22T03:49:34.409Z,85.37
2023-08-22T03:52:02.685Z,85.84
2023-08-22T03:54:32.566Z,85.66
2023-08-22T03:57:00.524Z,86.26
2023-08-22T03:59:28.382Z,86.20
2023-08-22T04:01:56.565Z,86.31
2023-08-22T04:04:26.002Z,86.24
2023-08-22T04:06:53.780Z,86.51
2023-08-22T04:09:21.574Z,87.23
2023-08-22T04:11:50.760Z,86.58
2023-08-22T04:14:18.581Z,86.95
2023-08-22T04:16:46.841Z,86.79
2023-08-22T04:19:14.776Z,87.00
2023-08-22T04:21:43.348Z,86.51
2023-08-22T04:24:11.346Z,86.76
2023-08-22T04:26:40.000Z,86.37
2023-08-22T04:29:10.245Z,87.43
2023-08-22T04:31:37.976Z,87.93
2023-08-22T04:34:05.881Z,87.89
2023-08-22T04:36:38.664Z,87.71
2023-08-22T04:39:06.435Z,87.84
2023-08-22T04:41:34.929Z,88.48
2023-08-22T04:44:12.348Z,87.99
2023-08-22T04:46:40.403Z,87.60
2023-08-22T04:49:09.823Z,87.61
2023-08-22T04:51:37.680Z,87.38
2023-08-22T04:54:05.653Z,87.16
2023-08-22T04:56:34.404Z,86.82
2023-08-22T04:59:02.673Z,87.08
2023-08-22T05:01:32.480Z,87.07
2023-08-22T05:04:00.777Z,87.23
2023-08-22T05:06:28.818Z,86.96
2023-08-22T05:08:56.631Z,86.83
2023-08-22T05:11:25.223Z,86.63
2023-08-22T05:13:53.053Z,86.77
2023-08-22T05:16:20.961Z,86.97
2023-08-22T05:18:50.704Z,86.82
2023-08-22T05:21:18.414Z,86.51
2023-08-22T05:23:47.419Z,86.87
2023-08-22T05:26:16.676Z,87.03
2023-08-22T05:28:44.677Z,86.88
2023-08-22T05:31:20.906Z,86.39
2023-08-22T05:33:50.579Z,86.76
2023-08-22T05:36:18.938Z,87.14
2023-08-22T05:38:48.073Z,86.14
2023-08-22T05:41:15.977Z,86.11
2023-08-22T05:43:43.718Z,86.17
2023-08-22T05:46:12.104Z,86.33
2023-08-22T05:48:39.994Z,86.73
2023-08-22T05:51:09.397Z,86.62
2023-08-22T05:53:37.249Z,86.16
2023-08-22T05:56:05.401Z,85.75
2023-08-22T05:58:35.292Z,85.75
2023-08-22T06:01:09.113Z,85.87
2023-08-22T06:03:37.125Z,85.10
2023-08-22T06:06:05.627Z,85.15
2023-08-22T06:08:34.878Z,84.92
2023-08-22T06:11:02.750Z,84.52
2023-08-22T06:13:30.935Z,84.94
2023-08-22T06:15:59.595Z,84.29
2023-08-22T06:18:27.537Z,83.64
2023-08-22T06:20:59.970Z,83.71
2023-08-22T06:23:28.279Z,83.30
2023-08-22T06:25:59.078Z,82.88
2023-08-22T06:28:26.818Z,82.15
2023-08-22T06:30:55.937Z,81.70
2023-08-22T06:33:23.812Z,81.85
2023-08-22T06:35:51.592Z,81.04
2023-08-22T06:38:19.511Z,80.88
2023-08-22T06:40:47.455Z,81.11
2023-08-22T06:43:17.433Z,80.55
2023-08-22T06:45:47.170Z,79.10
2023-08-22T06:48:23.746Z,78.54
2023-08-22T06:50:56.195Z,77.76
2023-08-22T06:53:23.986Z,77.73
2023-08-22T06:55:51.805Z,77.48
2023-08-22T06:58:20.904Z,77.55
2023-08-22T07:00:48.875Z,76.97
2023-08-22T07:03:16.921Z,76.74
2023-08-22T07:05:44.778Z,76.58
2023-08-22T07:08:12.570Z,75.82
2023-08-22T07:10:40.338Z,75.31
2023-08-22T07:13:08.141Z,75.19
2023-08-22T07:15:38.562Z,74.27
2023-08-22T07:18:07.495Z,74.00
2023-08-22T07:20:35.386Z,73.53
2023-08-22T07:23:03.223Z,73.65
2023-08-22T07:25:31.072Z,73.61
2023-08-22T07:27:58.907Z,73.88
2023-08-22T07:30:26.918Z,73.89
2023-08-22T07:32:56.098Z,73.97
2023-08-22T07:35:23.909Z,73.46
2023-08-22T07:37:51.710Z,72.81
2023-08-22T07:40:19.499Z,73.18
2023-08-22T07:42:47.771Z,72.76
2023-08-22T07:45:15.607Z,71.71
2023-08-22T07:47:43.439Z,71.20
2023-08-22T07:50:12.913Z,70.97
2023-08-22T07:52:40.752Z,70.71
2023-08-22T07:55:09.470Z,70.66
2023-08-22T07:57:37.203Z,69.75
2023-08-22T08:00:09.032Z,69.70
2023-08-22T08:02:39.990Z,68.93
2023-08-22T08:05:08.974Z,69.44
2023-08-22T08:07:38.235Z,68.45
2023-08-22T08:10:06.705Z,68.65
2023-08-22T08:12:34.437Z,66.10
2023-08-22T08:15:02.321Z,66.13
2023-08-22T08:17:30.216Z,64.27
2023-08-22T08:19:58.048Z,65.09
2023-08-22T08:22:25.770Z,63.81
2023-08-22T08:24:54.854Z,64.12
2023-08-22T08:27:22.611Z,64.04
2023-08-22T08:29:50.424Z,63.32
2023-08-22T08:32:18.461Z,62.44
2023-08-22T08:34:46.247Z,63.10
2023-08-22T08:37:14.100Z,63.03
2023-08-22T08:39:41.879Z,61.87
2023-08-22T08:42:14.384Z,61.22
2023-08-22T08:44:42.809Z,61.48
2023-08-22T08:47:12.687Z,61.26
2023-08-22T08:49:40.493Z,62.32
2023-08-22T08:52:09.702Z,62.75
2023-08-22T08:54:38.024Z,61.53
2023-08-22T08:57:06.047Z,61.34
2023-08-22T08:59:35.296Z,61.58
2023-08-22T09:02:05.194Z,62.18
2023-08-22T09:04:33.122Z,60.46
2023-08-22T09:07:00.826Z,60.53
2023-08-22T09:09:35.297Z,60.24
2023-08-22T09:12:07.387Z,60.35
2023-08-22T09:14:42.833Z,60.52
2023-08-22T09:17:11.480Z,60.38
2023-08-22T09:19:39.281Z,60.06
2023-08-22T09:22:07.017Z,59.84
2023-08-22T09:24:38.595Z,59.48
2023-08-22T09:27:07.375Z,58.71
2023-08-22T09:29:36.928Z,59.51
2023-08-22T09:32:06.389Z,59.73
2023-08-22T09:34:35.485Z,58.03
2023-08-22T09:37:03.947Z,56.59
2023-08-22T09:39:32.868Z,56.84
2023-08-22T09:42:01.623Z,57.12
2023-08-22T09:44:30.640Z,57.69
2023-08-22T09:46:59.860Z,57.13
2023-08-22T09:49:29.154Z,59.26
2023-08-22T09:51:57.037Z,58.24
2023-08-22T09:54:25.450Z,56.58
2023-08-22T09:56:53.479Z,57.16
2023-08-22T09:59:21.703Z,57.01
2023-08-22T10:01:50.564Z,57.07
2023-08-22T10:04:20.605Z,56.28
2023-08-22T10:06:51.689Z,57.07
2023-08-22T10:09:21.774Z,55.48
2023-08-22T10:11:52.778Z,54.88
2023-08-22T10:14:25.428Z,54.52
2023-08-22T10:16:53.417Z,54.51
2023-08-22T10:19:26.089Z,54.93
2023-08-22T10:21:54.834Z,54.98
2023-08-22T10:24:29.433Z,55.04
2023-08-22T10:27:04.871Z,54.71
2023-08-22T10:29:36.024Z,54.25
2023-08-22T10:32:24.032Z,53.70
2023-08-22T10:35:28.552Z,53.76
2023-08-22T10:37:58.409Z,53.79
2023-08-22T10:40:31.174Z,53.99
2023-08-22T10:43:07.142Z,52.63
2023-08-22T10:45:44.626Z,52.36
2023-08-22T10:48:14.143Z,52.17
2023-08-22T10:50:44.105Z,51.93
2023-08-22T10:53:27.820Z,52.47
2023-08-22T10:55:57.254Z,53.10
2023-08-22T10:58:38.644Z,52.94
2023-08-22T11:01:12.416Z,52.76
2023-08-22T11:03:40.670Z,52.72
2023-08-22T11:06:16.507Z,51.61
2023-08-22T11:08:46.293Z,52.29
2023-08-22T11:11:15.623Z,52.36
2023-08-22T11:13:44.437Z,51.67
2023-08-22T11:16:14.757Z,52.03
2023-08-22T11:18:43.066Z,51.56
2023-08-22T11:21:11.544Z,52.33
2023-08-22T11:23:42.079Z,52.73
2023-08-22T11:26:13.426Z,51.95
2023-08-22T11:28:41.977Z,52.04
2023-08-22T11:31:16.143Z,51.69
2023-08-22T11:33:50.773Z,51.45
2023-08-22T11:36:19.724Z,51.69
2023-08-22T11:38:50.789Z,51.51
2023-08-22T11:41:22.865Z,50.83
2023-08-22T11:43:53.654Z,50.51
2023-08-22T11:46:23.384Z,50.79
2023-08-22T11:49:11.790Z,49.87
2023-08-22T11:51:39.565Z,50.34
2023-08-22T11:54:07.343Z,50.37
2023-08-22T11:56:36.503Z,50.98
2023-08-22T11:59:04.405Z,51.42
2023-08-22T12:01:33.455Z,51.07
2023-08-22T12:04:01.415Z,50.82
2023-08-22T12:06:29.644Z,50.22
2023-08-22T12:09:00.420Z,50.13
2023-08-22T12:11:29.674Z,49.77
2023-08-22T12:13:58.828Z,50.05
2023-08-22T12:16:27.983Z,50.25
2023-08-22T12:18:55.823Z,50.25
2023-08-22T12:21:23.578Z,49.80
2023-08-22T12:23:51.689Z,49.61
2023-08-22T12:26:19.597Z,49.77
2023-08-22T12:28:47.409Z,49.20
2023-08-22T12:31:16.573Z,49.64
2023-08-22T12:33:44.358Z,49.30
2023-08-22T12:36:12.273Z,49.98
2023-08-22T12:38:40.076Z,49.87
2023-08-22T12:41:08.655Z,48.74
2023-08-22T12:43:36.679Z,48.64
2023-08-22T12:46:04.452Z,48.21
2023-08-22T12:48:36.485Z,48.09
2023-08-22T12:51:04.559Z,49.04
2023-08-22T12:53:32.358Z,49.08
2023-08-22T12:56:00.258Z,49.28
2023-08-22T12:58:29.862Z,48.23
2023-08-22T13:00:57.724Z,48.19
2023-08-22T13:03:25.932Z,47.85
2023-08-22T13:05:55.234Z,47.61
2023-08-22T13:08:23.083Z,48.60
2023-08-22T13:10:53.371Z,48.29
2023-08-22T13:13:21.122Z,48.48
2023-08-22T13:15:49.694Z,48.63
2023-08-22T13:18:18.302Z,49.18
2023-08-22T13:20:46.155Z,48.45
2023-08-22T13:23:15.238Z,48.79
2023-08-22T13:25:43.331Z,49.12
2023-08-22T13:28:12.679Z,48.98
2023-08-22T13:30:41.884Z,49.71
2023-08-22T13:33:10.015Z,48.66
2023-08-22T13:35:38.126Z,48.81
2023-08-22T13:38:06.105Z,49.61
2023-08-22T13:40:35.405Z,49.56
2023-08-22T13:43:04.915Z,49.33
2023-08-22T13:45:32.928Z,49.77
2023-08-22T13:48:03.604Z,50.66
2023-08-22T13:50:33.108Z,50.17
2023-08-22T13:53:01.014Z,50.69
2023-08-22T13:55:29.488Z,50.23
2023-08-22T13:57:58.685Z,50.58
2023-08-22T14:00:28.104Z,50.53
2023-08-22T14:02:56.332Z,50.93
2023-08-22T14:05:24.493Z,50.75
2023-08-22T14:07:52.477Z,50.61
2023-08-22T14:10:24.812Z,51.43
2023-08-22T14:12:53.084Z,51.23
2023-08-22T14:15:22.684Z,51.14
2023-08-22T14:17:50.811Z,50.82
2023-08-22T14:20:19.281Z,51.03
2023-08-22T14:22:47.101Z,50.41
2023-08-22T14:25:15.188Z,50.61
2023-08-22T14:27:43.122Z,50.93
2023-08-22T14:30:13.530Z,50.64
2023-08-22T14:32:43.033Z,50.51
2023-08-22T14:35:11.676Z,51.08
2023-08-22T14:37:39.801Z,50.56
2023-08-22T14:40:08.929Z,50.35
2023-08-22T14:42:37.041Z,50.44
2023-08-22T14:45:05.746Z,50.46
2023-08-22T14:47:33.723Z,50.83
2023-08-22T14:50:03.168Z,50.54
2023-08-22T14:52:31.414Z,50.68
2023-08-22T14:55:00.329Z,50.83
2023-08-22T14:57:30.694Z,50.93
2023-08-22T14:59:58.454Z,51.01
2023-08-22T15:02:26.267Z,50.75
2023-08-22T15:04:54.090Z,50.54
2023-08-22T15:07:23.401Z,50.75
2023-08-22T15:09:51.400Z,50.73
2023-08-22T15:12:19.157Z,51.13
2023-08-22T15:14:47.052Z,51.25
2023-08-22T15:17:15.403Z,51.25
2023-08-22T15:19:43.309Z,50.46
2023-08-22T15:22:11.022Z,50.52
2023-08-22T15:24:40.598Z,50.35
2023-08-22T15:27:11.965Z,50.68
2023-08-22T15:29:40.349Z,51.35
2023-08-22T15:32:08.405Z,51.43
2023-08-22T15:34:36.186Z,50.89
2023-08-22T15:37:04.169Z,50.78
2023-08-22T15:39:31.992Z,51.05
2023-08-22T15:42:01.124Z,51.50
2023-08-22T15:44:28.875Z,51.27
2023-08-22T15:46:56.673Z,50.78
2023-08-22T15:49:24.461Z,51.08
2023-08-22T15:51:52.228Z,51.23
2023-08-22T15:54:19.995Z,51.31
2023-08-22T15:56:47.723Z,50.88
2023-08-22T15:59:16.843Z,51.33
2023-08-22T16:01:44.573Z,51.69
2023-08-22T16:04:12.420Z,51.19
2023-08-22T16:06:40.202Z,51.49
2023-08-22T16:09:08.080Z,51.38
2023-08-22T16:11:35.880Z,51.74
2023-08-22T16:14:03.711Z,51.68
2023-08-22T16:16:33.599Z,51.58
2023-08-22T16:19:01.362Z,51.52
2023-08-22T16:21:29.067Z,51.98
2023-08-22T16:23:56.821Z,51.81
2023-08-22T16:26:26.570Z,51.69
2023-08-22T16:28:55.773Z,52.35
2023-08-22T16:31:24.232Z,52.20
2023-08-22T16:33:53.508Z,52.26
2023-08-22T16:36:21.689Z,52.11
2023-08-22T16:38:49.595Z,52.00
2023-08-22T16:41:17.473Z,52.10
2023-08-22T16:43:45.323Z,52.15
2023-08-22T16:46:13.731Z,52.57
2023-08-22T16:48:41.613Z,53.04
2023-08-22T16:51:11.452Z,52.72
2023-08-22T16:53:40.831Z,52.79
2023-08-22T16:56:09.533Z,52.92
2023-08-22T16:58:40.208Z,52.82
2023-08-22T17:01:08.610Z,52.76
2023-08-22T17:03:36.795Z,52.71
2023-08-22T17:06:05.345Z,52.74
2023-08-22T17:08:34.618Z,53.14
2023-08-22T17:11:08.458Z,53.27
2023-08-22T17:13:37.118Z,53.50
2023-08-22T17:16:05.135Z,53.27
2023-08-22T17:18:33.392Z,53.23
2023-08-22T17:21:02.342Z,53.46
2023-08-22T17:23:30.378Z,53.11
2023-08-22T17:26:06.326Z,53.22
2023-08-22T17:28:34.240Z,53.34
2023-08-22T17:31:05.730Z,53.49
2023-08-22T17:33:36.743Z,53.62
2023-08-22T17:36:06.582Z,53.71
2023-08-22T17:38:34.522Z,53.94
2023-08-22T17:41:03.981Z,54.05
2023-08-22T17:43:34.180Z,54.22
2023-08-22T17:46:02.326Z,54.45
2023-08-22T17:48:30.460Z,54.69
2023-08-22T17:50:59.162Z,54.80
2023-08-22T17:53:27.672Z,55.03
2023-08-22T17:55:55.981Z,55.22
2023-08-22T17:58:24.452Z,55.37
2023-08-22T18:00:54.375Z,54.44
2023-08-22T18:03:22.494Z,55.14
2023-08-22T18:05:57.542Z,54.73
2023-08-22T18:08:26.094Z,54.91
2023-08-22T18:10:55.706Z,55.35
2023-08-22T18:13:23.502Z,55.62
2023-08-22T18:16:09.291Z,55.44
2023-08-22T18:18:40.765Z,55.09
2023-08-22T18:21:10.677Z,55.53
2023-08-22T18:23:39.203Z,55.56
2023-08-22T18:26:08.562Z,55.63
2023-08-22T18:28:36.678Z,55.52
2023-08-22T18:31:11.503Z,55.60
2023-08-22T18:33:40.231Z,56.11
2023-08-22T18:36:17.955Z,56.25
2023-08-22T18:38:46.013Z,55.99
2023-08-22T18:41:14.250Z,56.15
2023-08-22T18:43:43.723Z,56.07
2023-08-22T18:46:13.284Z,56.26
2023-08-22T18:48:42.096Z,56.57
2023-08-22T18:51:10.619Z,56.66
2023-08-22T18:53:38.733Z,56.45
2023-08-22T18:56:09.438Z,56.66
2023-08-22T18:58:38.464Z,56.70
2023-08-22T19:01:06.934Z,57.05
2023-08-22T19:03:36.229Z,57.18
2023-08-22T19:06:04.530Z,57.58
2023-08-22T19:08:32.973Z,57.38
2023-08-22T19:11:04.062Z,57.75
2023-08-22T19:13:32.136Z,58.29
2023-08-22T19:16:00.396Z,58.33
2023-08-22T19:18:28.526Z,58.86
2023-08-22T19:20:57.832Z,58.71
2023-08-22T19:23:26.086Z,58.86
2023-08-22T19:25:53.934Z,59.00
2023-08-22T19:28:21.938Z,59.28
2023-08-22T19:30:55.634Z,59.54
2023-08-22T19:33:25.595Z,59.75
2023-08-22T19:35:53.685Z,59.22
2023-08-22T19:38:23.302Z,59.47
2023-08-22T19:40:51.322Z,59.57
2023-08-22T19:43:20.121Z,60.01
2023-08-22T19:45:48.538Z,60.34
2023-08-22T19:48:16.718Z,60.22
2023-08-22T19:50:44.870Z,60.17
2023-08-22T19:53:12.890Z,61.25
2023-08-22T19:55:42.167Z,60.72
2023-08-22T19:58:09.990Z,60.52
2023-08-22T20:00:40.514Z,60.68
2023-08-22T20:03:08.362Z,60.82
2023-08-22T20:05:36.198Z,61.04
2023-08-22T20:08:04.075Z,61.11
2023-08-22T20:10:33.885Z,61.34
2023-08-22T20:13:03.358Z,61.48
2023-08-22T20:15:31.210Z,61.97
2023-08-22T20:17:59.086Z,62.37
2023-08-22T20:20:26.903Z,62.82
2023-08-22T20:22:54.653Z,62.42
2023-08-22T20:25:22.424Z,62.57
2023-08-22T20:27:50.436Z,62.40
2023-08-22T20:30:19.774Z,61.25
2023-08-22T20:32:47.717Z,61.57
2023-08-22T20:35:17.282Z,61.25
2023-08-22T20:37:47.485Z,62.14
2023-08-22T20:40:16.044Z,62.76
2023-08-22T20:42:44.099Z,63.04
2023-08-22T20:45:12.460Z,62.78
2023-08-22T20:47:41.795Z,63.93
2023-08-22T20:50:11.009Z,64.32
2023-08-22T20:52:38.879Z,63.67
2023-08-22T20:55:07.380Z,63.92
2023-08-22T20:57:35.338Z,63.83
2023-08-22T21:00:03.115Z,62.98
2023-08-22T21:02:31.145Z,64.12
2023-08-22T21:05:00.566Z,64.09
2023-08-22T21:07:28.391Z,64.12
2023-08-22T21:09:57.050Z,64.65
2023-08-22T21:12:24.944Z,66.21
2023-08-22T21:14:53.005Z,66.47
2023-08-22T21:17:20.968Z,67.05
2023-08-22T21:19:49.021Z,67.40
2023-08-22T21:22:18.435Z,67.51
2023-08-22T21:24:46.929Z,67.72
2023-08-22T21:27:15.155Z,67.98
2023-08-22T21:29:44.416Z,68.04
2023-08-22T21:32:14.627Z,67.45
2023-08-22T21:34:43.925Z,67.42
2023-08-22T21:37:12.077Z,67.28
2023-08-22T21:39:41.601Z,67.37
2023-08-22T21:42:09.469Z,67.68
2023-08-22T21:44:37.356Z,67.61
2023-08-22T21:47:05.516Z,67.36
2023-08-22T21:49:33.639Z,66.88
2023-08-22T21:52:01.471Z,66.79
2023-08-22T21:54:29.262Z,66.84
2023-08-22T21:56:58.407Z,67.54
2023-08-22T21:59:26.095Z,68.02
2023-08-22T22:01:53.934Z,68.16
2023-08-22T22:04:21.828Z,68.81
2023-08-22T22:06:49.584Z,68.77
2023-08-22T22:09:17.347Z,69.24
2023-08-22T22:11:45.156Z,69.32
2023-08-22T22:14:14.301Z,69.93
2023-08-22T22:16:45.518Z,69.81
2023-08-22T22:19:14.378Z,70.16
2023-08-22T22:21:42.841Z,70.71
2023-08-22T22:24:10.778Z,70.96
2023-08-22T22:26:38.558Z,71.13
2023-08-22T22:29:06.487Z,71.08
2023-08-22T22:31:35.630Z,71.64
2023-08-22T22:34:03.625Z,70.84
2023-08-22T22:36:31.418Z,70.98
2023-08-22T22:38:59.863Z,71.05
2023-08-22T22:41:27.768Z,71.00
2023-08-22T22:43:55.548Z,71.32
2023-08-22T22:46:23.539Z,71.08
2023-08-22T22:48:52.732Z,70.78
2023-08-22T22:51:20.542Z,71.00
2023-08-22T22:53:48.325Z,71.60
2023-08-22T22:56:16.563Z,72.00
2023-08-22T22:58:44.380Z,71.95
2023-08-22T23:01:12.457Z,72.31
2023-08-22T23:03:40.394Z,72.59
2023-08-22T23:06:10.381Z,72.55
2023-08-22T23:08:39.181Z,72.64
2023-08-22T23:11:15.787Z,72.89
2023-08-22T23:13:51.844Z,73.28
2023-08-22T23:16:19.683Z,72.80
2023-08-22T23:18:47.460Z,71.94
2023-08-22T23:21:16.546Z,71.37
2023-08-22T23:23:44.354Z,70.92
2023-08-22T23:26:12.136Z,71.20
2023-08-22T23:28:41.003Z,70.75
2023-08-22T23:31:08.824Z,70.79
2023-08-22T23:33:36.745Z,71.09
2023-08-22T23:36:04.858Z,71.07
2023-08-22T23:38:34.004Z,71.27
2023-08-22T23:41:01.856Z,71.57
2023-08-22T23:43:29.667Z,71.59
2023-08-22T23:45:57.473Z,71.95
2023-08-22T23:48:25.244Z,72.38
2023-08-22T23:50:55.960Z,71.85
2023-08-22T23:53:28.515Z,71.78
2023-08-22T23:55:57.655Z,71.70
2023-08-22T23:58:25.521Z,71.54
